Terminal Aerodrome Forecast
Issued by NWS Tulsa, OK

Home | Current Version | Previous Version | Text Only | Print | Product List | Glossary On
Versions: 1 2 3 4 5 6 7 8 9 10 11 12 13 14 15 16 17 18 19
000
FTUS44 KTSA 180300 AAA
TAFTUL
TAF AMD
KTUL 180302Z 1803/1824 11006KT 6SM -DZ BR BKN008 BKN012
     FM180500 11005KT 4SM -DZ BR OVC007
     FM180900 13003KT 2SM -DZ BR OVC004
     FM181500 10004KT 4SM BR OVC007
     FM182100 04005KT 5SM BR OVC012=

USA.gov is the U.S. government's official web portal to all federal, state and local government web resources and services.